Time;durP1;ratioP1;P1;durP2;ratioP2;P2;SDS_P1;SDS_P2;PMS_P1;PMS_P2;Temp;Humidity;BMP_temperature;BMP_pressure;BME280_temperature;BME280_humidity;BME280_pressure;Samples;Min_cycle;Max_cycle;Signal;HPM_P1;HPM_P2
2022/01/27 00:01:47;;;;;;;64.45;36.05;;;76.80;2227.20;;;;;;5041429;28;20018;-75
2022/01/27 00:04:21;;;;;;;66.43;37.97;;;76.80;2227.20;;;;;;5040180;28;20029;-75
2022/01/27 00:06:47;;;;;;;64.97;38.80;;;52.10;2227.20;;;;;;5040793;28;20116;-75
2022/01/27 00:09:19;;;;;;;64.28;36.38;;;52.10;2227.20;;;;;;5042341;28;20098;-75
2022/01/27 00:11:47;;;;;;;66.63;40.97;;;52.10;2227.20;;;;;;5039379;28;20044;-75
2022/01/27 00:14:14;;;;;;;70.18;36.13;;;76.80;2227.20;;;;;;5038789;28;20025;-75
2022/01/27 00:16:53;;;;;;;60.47;37.67;;;76.80;2227.20;;;;;;5050465;28;20118;-74
2022/01/27 00:19:18;;;;;;;67.40;37.10;;;76.80;2227.20;;;;;;5040319;28;20107;-74
2022/01/27 00:21:44;;;;;;;62.97;38.08;;;76.80;2227.20;;;;;;5038759;28;20159;-73
2022/01/27 00:24:10;;;;;;;66.88;36.15;;;76.80;2227.20;;;;;;5042742;28;20029;-74
2022/01/27 00:26:35;;;;;;;66.07;37.95;;;76.80;2227.20;;;;;;5043084;28;20040;-74
2022/01/27 00:29:01;;;;;;;62.50;36.13;;;76.80;2227.20;;;;;;5041165;28;20025;-74
2022/01/27 00:31:27;;;;;;;57.40;34.25;;;76.80;2227.20;;;;;;5043528;28;20017;-74
2022/01/27 00:33:54;;;;;;;65.22;35.60;;;76.80;2227.20;;;;;;5043305;28;20041;-75
2022/01/27 00:36:20;;;;;;;71.07;38.17;;;76.80;2227.20;;;;;;5038477;28;20476;-74
2022/01/27 00:38:46;;;;;;;63.28;35.85;;;76.80;2227.20;;;;;;5033183;28;20518;-73
2022/01/27 00:41:13;;;;;;;61.03;37.17;;;76.80;2227.20;;;;;;5036666;28;20500;-74
2022/01/27 00:43:39;;;;;;;59.45;34.92;;;76.80;2227.20;;;;;;5029275;28;20040;-73
2022/01/27 00:46:11;;;;;;;62.55;34.92;;;76.80;2227.20;;;;;;5031197;28;20038;-73
2022/01/27 00:48:36;;;;;;;56.63;31.63;;;76.80;2227.20;;;;;;5031715;28;20057;-74
2022/01/27 00:51:04;;;;;;;58.17;34.75;;;76.90;2227.20;;;;;;5032269;28;20025;-74
2022/01/27 00:53:41;;;;;;;69.93;37.20;;;76.90;2227.20;;;;;;5031684;28;20021;-74
2022/01/27 00:56:29;;;;;;;60.78;35.33;;;76.90;2227.20;;;;;;5031968;28;20021;-75
2022/01/27 01:01:46;;;;;;;60.45;35.00;;;76.90;2227.20;;;;;;5011422;28;20053;-75
2022/01/27 01:04:13;;;;;;;69.22;35.25;;;76.80;2227.20;;;;;;5012012;28;20030;-74
2022/01/27 01:06:45;;;;;;;63.08;36.90;;;76.80;2227.20;;;;;;5011218;28;20040;-73
2022/01/27 01:12:31;;;;;;;63.55;36.67;;;76.80;2227.20;;;;;;5026833;28;20095;-73
2022/01/27 01:14:54;;;;;;;59.00;35.97;;;52.10;2227.20;;;;;;5035333;28;20028;-73
2022/01/27 01:33:09;;;;;;;66.88;39.08;;;76.80;2227.20;;;;;;5030954;28;20139;-74
2022/01/27 01:36:34;;;;;;;62.42;36.65;;;76.80;2227.20;;;;;;5030197;28;20107;-74
2022/01/27 01:38:25;;;;;;;67.53;38.45;;;76.80;2227.20;;;;;;5027732;28;20049;-74
2022/01/27 01:40:52;;;;;;;60.70;34.97;;;76.80;2227.20;;;;;;5029984;28;20048;-74
2022/01/27 01:43:20;;;;;;;56.85;35.33;;;76.80;2227.20;;;;;;5030075;28;20532;-73
2022/01/27 01:45:46;;;;;;;63.03;36.03;;;52.10;2227.20;;;;;;5030562;28;20041;-74
2022/01/27 01:48:14;;;;;;;59.95;35.42;;;52.10;2227.20;;;;;;5030260;28;20033;-73
2022/01/27 01:50:40;;;;;;;67.07;37.17;;;76.80;2227.20;;;;;;5030844;28;20025;-72
2022/01/27 01:53:06;;;;;;;69.65;37.65;;;76.80;2227.20;;;;;;5031051;28;20048;-73
2022/01/27 01:55:32;;;;;;;61.83;36.58;;;76.80;2227.20;;;;;;5030230;28;20373;-73
2022/01/27 01:57:59;;;;;;;59.92;34.85;;;76.80;2227.20;;;;;;5033471;28;20032;-74
2022/01/27 02:00:26;;;;;;;55.90;34.50;;;76.80;2227.20;;;;;;5053193;28;20029;-74
2022/01/27 02:02:53;;;;;;;56.20;33.35;;;76.80;2227.20;;;;;;5053350;28;20017;-74
2022/01/27 02:05:27;;;;;;;57.25;35.28;;;76.80;2227.20;;;;;;5055261;28;20040;-74
2022/01/27 02:08:44;;;;;;;58.00;33.65;;;76.80;2227.20;;;;;;5054761;28;20029;-73
2022/01/27 02:19:17;;;;;;;67.05;36.95;;;52.10;2227.20;;;;;;5035103;28;20032;-73
2022/01/27 02:22:10;;;;;;;60.58;33.88;;;52.10;2227.20;;;;;;5035627;28;20025;-73
2022/01/27 02:24:36;;;;;;;63.53;36.13;;;52.10;2227.20;;;;;;5034013;28;20040;-73
2022/01/27 02:27:04;;;;;;;64.22;37.28;;;76.80;2227.20;;;;;;5034458;28;20040;-74
2022/01/27 02:29:30;;;;;;;62.28;37.67;;;76.80;2227.20;;;;;;5035184;28;20033;-74
2022/01/27 02:31:58;;;;;;;67.85;39.65;;;76.80;2227.20;;;;;;5035449;28;20038;-74
2022/01/27 02:34:24;;;;;;;67.10;38.88;;;76.80;2227.20;;;;;;5034568;28;20073;-74
2022/01/27 02:36:50;;;;;;;61.25;34.95;;;52.10;2227.20;;;;;;5034270;28;20026;-74
2022/01/27 02:39:17;;;;;;;66.20;37.63;;;76.80;2227.20;;;;;;5033976;28;20036;-74
2022/01/27 02:41:49;;;;;;;74.10;37.60;;;52.10;2227.20;;;;;;5035397;28;20029;-73
2022/01/27 02:44:29;;;;;;;59.10;36.03;;;52.10;2227.20;;;;;;5033879;28;20045;-74
2022/01/27 02:46:55;;;;;;;57.72;35.33;;;52.10;2227.20;;;;;;5035093;28;20530;-73
2022/01/27 02:49:21;;;;;;;59.70;33.83;;;76.80;2227.20;;;;;;5034792;28;20021;-74
2022/01/27 02:51:47;;;;;;;60.60;36.13;;;76.80;2227.20;;;;;;5035100;28;20028;-74
2022/01/27 02:54:12;;;;;;;61.90;35.00;;;76.80;2227.20;;;;;;5033915;28;20535;-73
2022/01/27 02:56:44;;;;;;;58.33;34.50;;;76.80;2227.20;;;;;;5033775;28;20083;-73
2022/01/27 02:59:10;;;;;;;58.03;34.35;;;76.90;2227.20;;;;;;5033852;28;20084;-73
2022/01/27 03:01:36;;;;;;;58.92;35.33;;;76.90;2227.20;;;;;;5033902;28;20104;-73
2022/01/27 03:04:03;;;;;;;56.70;34.13;;;76.90;2227.20;;;;;;5033542;28;20120;-73
2022/01/27 03:06:29;;;;;;;64.28;35.90;;;76.90;2227.20;;;;;;5034526;28;20018;-73
2022/01/27 03:08:54;;;;;;;57.28;36.70;;;76.90;2227.20;;;;;;5034703;28;20346;-73
2022/01/27 03:11:35;;;;;;;58.95;34.05;;;76.80;2227.20;;;;;;5034833;28;20028;-73
2022/01/27 03:14:01;;;;;;;65.15;36.42;;;76.80;2227.20;;;;;;5032969;28;20120;-73
2022/01/27 03:16:27;;;;;;;62.20;37.85;;;76.80;2227.20;;;;;;5040524;28;20113;-74
2022/01/27 03:18:52;;;;;;;60.03;35.03;;;76.80;2227.20;;;;;;5043048;28;20119;-74
2022/01/27 03:21:18;;;;;;;61.78;35.38;;;76.80;2227.20;;;;;;5033312;28;20025;-75
2022/01/27 03:23:44;;;;;;;69.07;38.78;;;76.80;2227.20;;;;;;5032982;28;20079;-74
2022/01/27 03:26:10;;;;;;;57.40;33.67;;;76.80;2227.20;;;;;;5066064;28;20060;-74
2022/01/27 03:28:35;;;;;;;61.67;35.60;;;76.80;2227.20;;;;;;5034372;28;20017;-74
2022/01/27 03:31:01;;;;;;;62.40;34.95;;;76.80;2227.20;;;;;;5033058;28;20761;-74
2022/01/27 03:33:27;;;;;;;65.05;33.85;;;76.80;2227.20;;;;;;5033965;28;20026;-73
2022/01/27 03:35:52;;;;;;;60.53;35.70;;;76.80;2227.20;;;;;;5033921;28;20147;-74
2022/01/27 03:38:18;;;;;;;58.15;34.50;;;76.80;2227.20;;;;;;5034343;28;20469;-74
2022/01/27 03:40:44;;;;;;;61.05;34.42;;;76.80;2227.20;;;;;;5066149;28;20507;-74
2022/01/27 03:43:11;;;;;;;52.65;33.92;;;52.10;2227.20;;;;;;5034233;28;20473;-74
2022/01/27 03:45:37;;;;;;;54.60;34.20;;;76.80;2227.20;;;;;;5034104;28;20029;-73
2022/01/27 03:48:04;;;;;;;66.57;36.95;;;76.90;2227.20;;;;;;5032729;28;20025;-73
2022/01/27 03:50:30;;;;;;;61.60;35.00;;;76.80;2227.20;;;;;;5032832;28;20048;-74
2022/01/27 03:52:55;;;;;;;64.93;36.92;;;76.80;2227.20;;;;;;5032271;28;20093;-74
2022/01/27 03:55:21;;;;;;;60.92;34.08;;;76.80;2227.20;;;;;;5034020;28;20030;-74
2022/01/27 03:57:47;;;;;;;58.63;34.40;;;76.80;2227.20;;;;;;5032544;28;20037;-75
2022/01/27 04:00:13;;;;;;;54.90;32.53;;;76.80;2227.20;;;;;;5033900;28;20017;-73
2022/01/27 04:02:51;;;;;;;55.55;34.75;;;76.80;2227.20;;;;;;5050705;28;20082;-74
2022/01/27 04:05:19;;;;;;;60.80;34.50;;;76.80;2227.20;;;;;;5054100;28;20043;-74
2022/01/27 04:07:45;;;;;;;60.95;35.13;;;76.80;2227.20;;;;;;5053723;28;20025;-74
2022/01/27 04:10:10;;;;;;;58.53;32.72;;;76.80;2227.20;;;;;;5043161;28;20044;-73
2022/01/27 04:12:36;;;;;;;59.00;34.75;;;76.80;2227.20;;;;;;5032421;28;20107;-74
2022/01/27 04:15:03;;;;;;;60.47;33.90;;;76.80;2227.20;;;;;;5032076;28;20104;-73
2022/01/27 04:17:29;;;;;;;63.45;34.22;;;76.80;2227.20;;;;;;5032070;28;20026;-74
2022/01/27 04:19:55;;;;;;;58.53;33.97;;;76.80;2227.20;;;;;;5031149;28;20024;-74
2022/01/27 04:22:21;;;;;;;60.55;32.72;;;76.90;2227.20;;;;;;5033504;28;20079;-74
2022/01/27 04:24:46;;;;;;;58.30;34.70;;;76.80;2227.20;;;;;;5031933;28;20033;-74
2022/01/27 04:27:18;;;;;;;51.92;32.30;;;76.80;2227.20;;;;;;5033246;28;20434;-73
2022/01/27 04:29:44;;;;;;;58.78;32.40;;;76.80;2227.20;;;;;;5034476;28;20040;-74
2022/01/27 04:32:12;;;;;;;58.15;33.58;;;76.80;2227.20;;;;;;5051990;28;20024;-74
2022/01/27 04:34:41;;;;;;;61.10;33.92;;;76.80;2227.20;;;;;;5052532;28;20044;-74
2022/01/27 04:37:09;;;;;;;57.85;32.20;;;76.80;2227.20;;;;;;5053009;28;20017;-73
2022/01/27 04:39:42;;;;;;;52.42;31.30;;;76.80;2227.20;;;;;;5048798;28;20051;-73
2022/01/27 04:42:18;;;;;;;59.35;31.42;;;76.80;2227.20;;;;;;5048701;28;20029;-73
2022/01/27 04:44:54;;;;;;;57.85;33.38;;;76.80;2227.20;;;;;;5037883;28;20049;-73
2022/01/27 04:47:32;;;;;;;60.08;32.70;;;76.90;2227.20;;;;;;5031320;28;20056;-73
2022/01/27 04:49:59;;;;;;;59.38;32.78;;;76.90;2227.20;;;;;;5031543;28;20080;-74
2022/01/27 04:52:27;;;;;;;61.47;34.63;;;76.80;2227.20;;;;;;5033085;28;20481;-73
2022/01/27 04:57:18;;;;;;;57.70;32.88;;;76.90;2227.20;;;;;;5032342;28;20105;-74
2022/01/27 04:59:45;;;;;;;54.42;33.92;;;76.90;2227.20;;;;;;5030835;28;20026;-72
2022/01/27 05:02:31;;;;;;;59.28;33.80;;;76.90;2227.20;;;;;;5037187;28;20025;-74
2022/01/27 05:04:56;;;;;;;53.15;32.53;;;76.90;2227.20;;;;;;5039841;28;20496;-74
2022/01/27 05:07:22;;;;;;;54.58;32.67;;;76.90;2227.20;;;;;;5031298;28;20037;-72
2022/01/27 05:09:59;;;;;;;60.90;35.92;;;77.00;2227.20;;;;;;5031764;28;20108;-74
2022/01/27 05:14:54;;;;;;;65.82;35.90;;;76.90;2227.20;;;;;;5035444;28;20420;-74
2022/01/27 05:17:20;;;;;;;63.50;35.72;;;76.90;2227.20;;;;;;5032637;28;20397;-74
2022/01/27 05:19:47;;;;;;;58.85;36.28;;;77.00;2227.20;;;;;;5032423;28;20021;-74
2022/01/27 05:22:14;;;;;;;62.30;37.17;;;77.00;2227.20;;;;;;5032636;28;20048;-74
2022/01/27 05:24:39;;;;;;;61.97;34.03;;;77.00;2227.20;;;;;;5032259;28;20021;-74
2022/01/27 05:27:05;;;;;;;75.55;40.08;;;77.00;2227.20;;;;;;5032634;28;20040;-74
2022/01/27 05:29:31;;;;;;;61.78;34.63;;;77.00;2227.20;;;;;;5030724;28;20388;-74
2022/01/27 05:31:57;;;;;;;59.75;35.67;;;77.00;2227.20;;;;;;5030861;28;20033;-74
2022/01/27 05:34:22;;;;;;;60.33;33.10;;;77.00;2227.20;;;;;;5030993;28;20053;-74
2022/01/27 05:36:48;;;;;;;69.88;40.05;;;77.00;2227.20;;;;;;5032202;28;20021;-74
2022/01/27 05:39:14;;;;;;;72.85;41.38;;;77.00;2227.20;;;;;;5031244;28;20077;-74
2022/01/27 05:41:40;;;;;;;72.53;40.13;;;77.00;2227.20;;;;;;5030712;28;20028;-74
2022/01/27 05:44:06;;;;;;;69.25;39.22;;;77.00;2227.20;;;;;;5030559;28;20411;-74
2022/01/27 05:46:31;;;;;;;63.00;39.10;;;77.00;2227.20;;;;;;5031702;28;20087;-73
2022/01/27 05:48:57;;;;;;;62.45;36.50;;;77.00;2227.20;;;;;;5032295;28;20728;-73
2022/01/27 05:51:23;;;;;;;60.80;35.63;;;77.00;2227.20;;;;;;5032054;28;20469;-73
2022/01/27 05:53:49;;;;;;;82.50;46.40;;;77.00;2227.20;;;;;;5032102;28;20024;-73
2022/01/27 05:56:14;;;;;;;92.93;55.58;;;77.00;2227.20;;;;;;5032037;28;20477;-73
2022/01/27 05:58:40;;;;;;;97.20;54.80;;;77.00;2227.20;;;;;;5031562;28;20025;-73
2022/01/27 06:01:06;;;;;;;83.30;47.03;;;77.00;2227.20;;;;;;5031244;28;20030;-75
2022/01/27 06:03:32;;;;;;;92.53;50.60;;;77.00;2227.20;;;;;;5035337;28;20041;-73
2022/01/27 06:05:58;;;;;;;88.82;50.42;;;77.00;2227.20;;;;;;5039260;28;20040;-74
2022/01/27 06:08:25;;;;;;;107.88;60.40;;;77.00;2227.20;;;;;;5030591;28;20076;-73
2022/01/27 06:10:51;;;;;;;95.80;54.95;;;77.00;2227.20;;;;;;5037657;28;20401;-73
2022/01/27 06:13:17;;;;;;;86.88;50.95;;;77.00;2227.20;;;;;;5039351;28;20060;-74
2022/01/27 06:15:43;;;;;;;97.93;52.17;;;77.00;2227.20;;;;;;5037632;28;20216;-75
2022/01/27 06:18:08;;;;;;;92.18;51.03;;;76.90;2227.20;;;;;;5033177;28;20079;-74
2022/01/27 06:20:35;;;;;;;90.38;48.03;;;77.00;2227.20;;;;;;5047582;28;20021;-74
2022/01/27 06:23:01;;;;;;;81.07;49.60;;;77.00;2227.20;;;;;;5051262;28;20052;-75
2022/01/27 06:25:28;;;;;;;78.88;44.75;;;77.00;2227.20;;;;;;5049268;28;20212;-74
2022/01/27 06:27:54;;;;;;;79.30;43.83;;;76.90;2227.20;;;;;;5037045;28;20090;-74
2022/01/27 06:30:20;;;;;;;77.55;44.70;;;77.00;2227.20;;;;;;5037711;28;20025;-75
2022/01/27 06:32:45;;;;;;;81.47;44.17;;;77.00;2227.20;;;;;;5030518;28;20389;-74
2022/01/27 06:35:11;;;;;;;73.97;41.30;;;76.90;2227.20;;;;;;5030444;28;20056;-74
2022/01/27 06:37:39;;;;;;;70.80;40.38;;;76.80;2227.20;;;;;;5033132;28;20491;-73
2022/01/27 06:40:05;;;;;;;65.38;39.65;;;76.80;2227.20;;;;;;5042250;28;20361;-73
2022/01/27 06:42:31;;;;;;;66.07;39.97;;;76.80;2227.20;;;;;;5031194;28;20034;-73
2022/01/27 06:44:57;;;;;;;71.20;42.03;;;76.80;2227.20;;;;;;5044584;28;20025;-72
2022/01/27 06:47:23;;;;;;;63.03;36.15;;;76.80;2227.20;;;;;;5035627;28;20504;-72
2022/01/27 06:49:49;;;;;;;64.18;35.60;;;76.90;2227.20;;;;;;5052778;28;20033;-72
2022/01/27 06:52:15;;;;;;;63.80;36.80;;;77.00;2227.20;;;;;;5037573;28;20036;-72
2022/01/27 06:54:41;;;;;;;58.88;35.65;;;77.00;2227.20;;;;;;5032831;28;20025;-72
2022/01/27 06:57:07;;;;;;;65.95;38.00;;;77.00;2227.20;;;;;;5041869;28;20036;-73
2022/01/27 06:59:34;;;;;;;66.80;36.42;;;77.00;2227.20;;;;;;5055088;28;20055;-72
2022/01/27 07:02:01;;;;;;;62.13;37.30;;;77.10;2227.20;;;;;;5042565;28;20056;-74
2022/01/27 07:04:26;;;;;;;59.25;33.03;;;77.00;2227.20;;;;;;5047397;28;20557;-73
2022/01/27 07:06:52;;;;;;;64.82;36.95;;;77.10;2227.20;;;;;;5038828;28;20037;-73
2022/01/27 07:09:18;;;;;;;66.47;35.17;;;77.10;2227.20;;;;;;5038016;28;20083;-73
2022/01/27 07:11:44;;;;;;;65.00;34.85;;;77.10;2227.20;;;;;;5042375;28;20094;-72
2022/01/27 07:14:11;;;;;;;93.53;61.80;;;77.10;2227.20;;;;;;5039631;28;20057;-73
2022/01/27 07:16:38;;;;;;;100.60;54.38;;;77.20;2227.20;;;;;;5048422;28;20021;-73
2022/01/27 07:19:04;;;;;;;85.60;49.97;;;77.30;2227.20;;;;;;5035447;28;20021;-72
2022/01/27 07:21:29;;;;;;;82.07;47.63;;;77.40;2227.20;;;;;;5037986;28;20032;-73
2022/01/27 07:23:55;;;;;;;125.65;65.47;;;77.40;2227.20;;;;;;5050364;28;20021;-73
2022/01/27 07:26:25;;;;;;;89.68;50.55;;;77.50;2227.20;;;;;;5033216;28;20029;-73
2022/01/27 07:28:55;;;;;;;102.35;57.95;;;77.50;2227.20;;;;;;5041089;28;20079;-73
2022/01/27 07:31:21;;;;;;;90.32;55.03;;;77.50;2227.20;;;;;;5032406;28;20082;-74
2022/01/27 07:33:48;;;;;;;62.50;35.53;;;77.50;2227.20;;;;;;5039640;28;20033;-74
2022/01/27 07:36:17;;;;;;;71.90;42.30;;;77.60;2227.20;;;;;;5036465;28;20021;-74
2022/01/27 07:38:47;;;;;;;88.22;54.08;;;77.60;2227.20;;;;;;5043492;28;20036;-73
2022/01/27 07:41:17;;;;;;;90.47;57.05;;;77.60;2227.20;;;;;;5047592;28;20022;-74
2022/01/27 07:43:42;;;;;;;74.22;44.67;;;77.60;2227.20;;;;;;5038770;28;20353;-74
2022/01/27 07:46:11;;;;;;;74.05;45.38;;;77.60;2227.20;;;;;;5036169;28;20469;-72
2022/01/27 07:48:40;;;;;;;64.78;39.85;;;77.60;2227.20;;;;;;5044120;28;20036;-72
2022/01/27 07:51:08;;;;;;;61.08;36.85;;;77.60;2227.20;;;;;;5033134;28;20026;-72
2022/01/27 07:53:35;;;;;;;60.22;34.22;;;77.60;2227.20;;;;;;5035726;28;20029;-75
2022/01/27 07:56:04;;;;;;;69.97;40.70;;;77.70;2227.20;;;;;;5043941;28;20818;-73
2022/01/27 07:58:31;;;;;;;64.80;41.65;;;102.40;2227.20;;;;;;5046321;28;20369;-73
2022/01/27 08:00:57;;;;;;;64.72;36.83;;;102.40;2227.20;;;;;;5044123;28;20490;-72
2022/01/27 08:03:22;;;;;;;66.15;37.90;;;102.40;2227.20;;;;;;5038256;28;20022;-73
2022/01/27 08:05:49;;;;;;;62.42;34.70;;;102.50;2227.20;;;;;;5033624;28;20035;-73
2022/01/27 08:08:14;;;;;;;66.43;40.83;;;102.50;2227.20;;;;;;5050409;28;20029;-72
2022/01/27 08:10:40;;;;;;;63.40;37.80;;;102.60;2227.20;;;;;;5052274;28;20029;-72
2022/01/27 08:13:09;;;;;;;71.13;42.72;;;102.60;2227.20;;;;;;5046741;28;20507;-72
2022/01/27 08:15:36;;;;;;;60.75;35.45;;;102.70;2227.20;;;;;;5048593;28;20510;-72
2022/01/27 08:18:02;;;;;;;59.97;35.70;;;102.80;2227.20;;;;;;5036913;28;20035;-73
2022/01/27 08:20:28;;;;;;;55.75;35.50;;;102.90;2227.20;;;;;;5043292;28;20013;-73
2022/01/27 08:22:55;;;;;;;69.28;37.80;;;103.10;2227.20;;;;;;5039134;28;20033;-73
2022/01/27 08:25:22;;;;;;;67.57;41.60;;;103.10;2227.20;;;;;;5037859;28;20029;-73
2022/01/27 08:27:50;;;;;;;68.47;39.47;;;103.30;2227.20;;;;;;5048999;28;20032;-73
2022/01/27 08:30:18;;;;;;;66.13;36.35;;;103.30;2227.20;;;;;;5041104;28;20026;-73
2022/01/27 08:32:58;;;;;;;63.42;37.97;;;128.20;2252.80;;;;;;5039690;28;20025;-73
2022/01/27 08:35:25;;;;;;;61.80;35.97;;;128.20;2252.80;;;;;;5039288;28;20385;-73
2022/01/27 08:37:52;;;;;;;55.55;33.25;;;128.00;2252.80;;;;;;5041001;28;20071;-73
2022/01/27 08:40:18;;;;;;;57.53;35.53;;;128.00;2252.80;;;;;;5044132;28;20048;-73
2022/01/27 08:42:44;;;;;;;58.75;34.03;;;103.20;2227.20;;;;;;5038700;28;20104;-75
2022/01/27 08:45:14;;;;;;;54.70;33.50;;;103.20;2227.20;;;;;;5042098;28;20025;-73
2022/01/27 08:47:40;;;;;;;55.58;34.88;;;103.10;2227.20;;;;;;5040403;28;20022;-72
2022/01/27 08:50:08;;;;;;;58.20;34.45;;;103.10;2227.20;;;;;;5034242;28;20036;-73
2022/01/27 08:52:35;;;;;;;58.03;34.75;;;103.20;2227.20;;;;;;5035936;28;20035;-73
2022/01/27 08:55:01;;;;;;;62.75;36.08;;;103.10;2227.20;;;;;;5034205;28;20515;-73
2022/01/27 08:57:26;;;;;;;54.28;32.90;;;103.00;2227.20;;;;;;5021281;28;20431;-73
2022/01/27 08:59:53;;;;;;;58.97;32.58;;;103.10;2227.20;;;;;;5018441;28;20034;-73
2022/01/27 09:02:20;;;;;;;64.65;37.35;;;103.00;2227.20;;;;;;5051193;28;20038;-72
2022/01/27 09:04:46;;;;;;;85.40;51.13;;;102.90;2227.20;;;;;;5024548;28;20496;-73
2022/01/27 09:07:12;;;;;;;94.35;52.45;;;102.90;2227.20;;;;;;5043251;28;20112;-73
2022/01/27 09:09:38;;;;;;;119.25;63.95;;;102.90;2227.20;;;;;;5047489;28;20132;-72
2022/01/27 09:12:04;;;;;;;119.55;68.35;;;103.00;2227.20;;;;;;5045924;28;20041;-72
2022/01/27 09:14:31;;;;;;;98.82;58.15;;;103.00;2227.20;;;;;;5039403;28;20096;-75
2022/01/27 09:16:58;;;;;;;62.53;39.85;;;103.10;2227.20;;;;;;5031328;28;20053;-72
2022/01/27 09:19:25;;;;;;;58.15;35.60;;;103.30;2227.20;;;;;;5044145;28;20044;-75
2022/01/27 09:21:53;;;;;;;59.50;34.47;;;103.30;2227.20;;;;;;5043748;28;20032;-73
2022/01/27 09:24:26;;;;;;;61.35;35.50;;;103.30;2227.20;;;;;;5034712;28;20075;-73
2022/01/27 09:26:59;;;;;;;63.28;35.88;;;103.30;2227.20;;;;;;5034802;28;20025;-75
2022/01/27 09:29:25;;;;;;;60.38;34.40;;;103.20;2227.20;;;;;;5040031;28;20017;-74
2022/01/27 09:31:51;;;;;;;67.53;37.30;;;103.20;2227.20;;;;;;5035407;28;20049;-74
2022/01/27 09:34:18;;;;;;;57.05;33.08;;;103.10;2227.20;;;;;;5031954;28;20053;-74
2022/01/27 09:36:44;;;;;;;63.38;39.05;;;103.20;2227.20;;;;;;5034022;28;20021;-73
2022/01/27 09:39:11;;;;;;;59.33;34.80;;;103.30;2227.20;;;;;;5042058;28;20028;-78
2022/01/27 09:41:39;;;;;;;52.92;34.25;;;103.30;2227.20;;;;;;5038915;28;20499;-74
2022/01/27 09:44:08;;;;;;;57.60;33.30;;;103.20;2227.20;;;;;;5038705;28;20025;-74
2022/01/27 09:46:35;;;;;;;58.97;35.92;;;103.20;2227.20;;;;;;5032286;28;20029;-74
2022/01/27 09:49:11;;;;;;;55.47;32.15;;;103.30;2227.20;;;;;;5030787;28;20033;-74
2022/01/27 09:51:43;;;;;;;61.33;34.97;;;103.30;2227.20;;;;;;5027854;28;20109;-73
2022/01/27 09:54:09;;;;;;;81.20;51.03;;;128.00;2252.80;;;;;;5028984;28;20102;-73
2022/01/27 09:56:35;;;;;;;65.18;39.03;;;128.10;2252.80;;;;;;5026321;28;20117;-73
2022/01/27 09:59:02;;;;;;;60.17;35.47;;;128.20;2252.80;;;;;;5027734;28;20053;-73
2022/01/27 10:01:28;;;;;;;64.05;38.40;;;128.20;2252.80;;;;;;5039488;28;20447;-76
2022/01/27 10:04:05;;;;;;;72.50;39.30;;;128.30;2252.80;;;;;;5050401;28;21197;-74
2022/01/27 10:06:33;;;;;;;80.10;46.47;;;128.30;2252.80;;;;;;5051863;28;20017;-73
2022/01/27 10:09:27;;;;;;;86.65;48.28;;;128.40;2252.80;;;;;;5050689;28;20025;-76
2022/01/27 10:11:54;;;;;;;88.22;48.97;;;128.30;2252.80;;;;;;5052071;28;20021;-75
2022/01/27 10:14:29;;;;;;;78.72;43.20;;;128.30;2252.80;;;;;;5039588;28;20025;-72
2022/01/27 10:16:59;;;;;;;61.20;37.55;;;128.40;2252.80;;;;;;5031407;28;20022;-73
2022/01/27 10:19:28;;;;;;;61.55;38.80;;;128.40;2252.80;;;;;;5034368;28;20029;-73
2022/01/27 10:22:01;;;;;;;64.50;40.95;;;128.40;2252.80;;;;;;5029315;28;20388;-73
2022/01/27 10:24:30;;;;;;;64.25;36.25;;;128.40;2252.80;;;;;;5049592;28;20017;-73
2022/01/27 10:32:41;;;;;;;55.05;33.33;;;128.70;2252.80;;;;;;5037705;28;20055;-74
2022/01/27 10:35:08;;;;;;;60.90;36.55;;;128.80;2252.80;;;;;;5029580;28;20042;-73
2022/01/27 10:38:04;;;;;;;64.75;38.40;;;128.80;2252.80;;;;;;5026525;28;20020;-73
2022/01/27 10:40:37;;;;;;;65.82;37.72;;;128.90;2252.80;;;;;;5029021;28;20836;-74
2022/01/27 10:43:14;;;;;;;67.57;38.83;;;128.90;2252.80;;;;;;5025759;28;20401;-72
2022/01/27 10:46:30;;;;;;;56.92;34.83;;;153.60;2252.80;;;;;;5030797;28;20086;-72
2022/01/27 10:49:06;;;;;;;61.78;35.15;;;153.70;2252.80;;;;;;5033339;28;20037;-72
2022/01/27 10:51:50;;;;;;;59.22;34.78;;;153.70;2252.80;;;;;;5049376;28;20061;-72
2022/01/27 10:57:26;;;;;;;68.45;37.88;;;153.60;2252.80;;;;;;5052582;28;20028;-73
2022/01/27 11:00:15;;;;;;;60.00;36.92;;;153.70;2252.80;;;;;;5045738;28;20025;-73
2022/01/27 11:02:58;;;;;;;80.65;42.28;;;154.00;2252.80;;;;;;5038920;28;20090;-73
2022/01/27 11:05:30;;;;;;;67.20;38.28;;;154.40;2252.80;;;;;;5043495;28;20029;-72
2022/01/27 11:07:57;;;;;;;67.30;38.03;;;154.50;2252.80;;;;;;5036138;28;20119;-72
2022/01/27 11:10:23;;;;;;;66.72;37.47;;;179.30;2252.80;;;;;;5029133;28;20755;-72
2022/01/27 11:12:50;;;;;;;61.38;39.17;;;179.30;2252.80;;;;;;5036218;28;20501;-72
2022/01/27 11:15:18;;;;;;;70.28;36.78;;;179.60;2252.80;;;;;;5033042;28;20029;-73
2022/01/27 11:17:45;;;;;;;69.07;37.60;;;179.90;2252.80;;;;;;5034224;28;20021;-73
2022/01/27 11:27:58;;;;;;;40.72;24.92;;;230.60;2252.80;;;;;;5045394;28;20060;-72
2022/01/27 11:30:27;;;;;;;46.88;28.15;;;230.50;2252.80;;;;;;5049809;28;20020;-72
2022/01/27 11:33:02;;;;;;;40.25;25.02;;;230.80;2252.80;;;;;;5043800;28;20033;-72
2022/01/27 11:35:28;;;;;;;37.72;20.88;;;231.00;2252.80;;;;;;5050510;28;20101;-72
2022/01/27 11:37:56;;;;;;;40.47;26.17;;;230.90;2252.80;;;;;;5053895;28;20099;-71
2022/01/27 11:40:51;;;;;;;43.70;23.73;;;256.40;2252.80;;;;;;5051034;28;20083;-72
2022/01/27 11:43:18;;;;;;;38.70;24.13;;;256.10;2252.80;;;;;;5050127;28;20045;-71
2022/01/27 11:45:45;;;;;;;33.67;21.67;;;256.50;2252.80;;;;;;5050423;28;20423;-72
2022/01/27 11:48:13;;;;;;;32.08;19.75;;;282.00;2278.40;;;;;;5053388;28;20025;-71
2022/01/27 11:53:45;;;;;;;36.83;22.48;;;282.20;2278.40;;;;;;5035475;28;20033;-71
2022/01/27 11:56:23;;;;;;;33.85;21.55;;;307.30;2304.00;;;;;;5053123;28;20509;-73
2022/01/27 11:58:51;;;;;;;30.63;18.83;;;282.00;2278.40;;;;;;5048244;28;20017;-71
2022/01/27 12:01:21;;;;;;;36.97;21.13;;;281.80;2278.40;;;;;;5037105;28;20099;-72
2022/01/27 12:04:09;;;;;;;29.77;19.65;;;281.70;2278.40;;;;;;5039500;28;20017;-72
2022/01/27 12:06:40;;;;;;;34.20;19.45;;;256.20;2252.80;;;;;;5040514;28;20465;-71
2022/01/27 12:09:18;;;;;;;26.52;16.92;;;256.50;2252.80;;;;;;5050935;28;20029;-71
2022/01/27 12:11:50;;;;;;;29.48;18.10;;;256.80;2252.80;;;;;;5042743;28;20029;-71
2022/01/27 12:14:24;;;;;;;28.33;17.60;;;256.30;2252.80;;;;;;5045777;28;20024;-71
2022/01/27 12:17:08;;;;;;;32.95;19.85;;;256.00;2252.80;;;;;;5039786;28;20079;-71
2022/01/27 12:19:53;;;;;;;29.73;18.75;;;256.10;2252.80;;;;;;5042965;28;20022;-71
2022/01/27 12:22:20;;;;;;;36.25;24.00;;;256.30;2252.80;;;;;;5043114;28;20032;-71
2022/01/27 12:24:52;;;;;;;32.20;18.35;;;256.40;2252.80;;;;;;5067376;28;20028;-72
2022/01/27 12:27:18;;;;;;;34.80;17.40;;;281.60;2278.40;;;;;;5039845;28;20155;-73
2022/01/27 12:29:49;;;;;;;28.88;18.35;;;256.50;2252.80;;;;;;5046094;28;20029;-71
2022/01/27 12:32:25;;;;;;;32.10;21.27;;;281.70;2278.40;;;;;;5040465;28;20416;-72
2022/01/27 12:34:52;;;;;;;34.63;19.98;;;282.50;2278.40;;;;;;5046187;28;20045;-73
2022/01/27 12:37:20;;;;;;;41.13;22.70;;;282.30;2278.40;;;;;;5046790;28;20025;-71
2022/01/27 12:39:57;;;;;;;36.53;22.08;;;281.70;2278.40;;;;;;5041613;28;20083;-72
2022/01/27 12:42:29;;;;;;;43.58;25.98;;;256.80;2252.80;;;;;;5042716;28;20017;-71
2022/01/27 12:45:02;;;;;;;40.33;24.42;;;256.70;2252.80;;;;;;5041500;28;20017;-71
2022/01/27 12:47:30;;;;;;;30.60;17.63;;;256.90;2252.80;;;;;;5032525;28;20497;-71
2022/01/27 12:50:06;;;;;;;31.58;18.48;;;281.90;2278.40;;;;;;5030836;28;20025;-72
2022/01/27 12:52:40;;;;;;;34.83;20.85;;;281.80;2278.40;;;;;;5044149;28;20024;-72
2022/01/27 12:55:12;;;;;;;37.85;21.75;;;282.20;2278.40;;;;;;5040816;28;20052;-72
2022/01/27 12:57:40;;;;;;;33.90;19.90;;;256.30;2252.80;;;;;;5047363;28;20013;-71
2022/01/27 13:00:08;;;;;;;35.55;18.17;;;256.40;2252.80;;;;;;5048535;28;20025;-72
2022/01/27 13:02:34;;;;;;;42.92;24.17;;;256.80;2252.80;;;;;;5030049;28;20061;-71
2022/01/27 13:05:01;;;;;;;33.42;20.58;;;256.60;2252.80;;;;;;5040031;28;20091;-72
2022/01/27 13:07:28;;;;;;;46.40;28.02;;;256.60;2252.80;;;;;;5027268;28;20077;-72